createdAt,value
2022-09-25T00:01:10.813Z,1.73
2022-09-25T00:03:38.375Z,1.60
2022-09-25T00:06:11.895Z,1.70
2022-09-25T00:08:40.231Z,1.50
2022-09-25T00:11:12.525Z,1.20
2022-09-25T00:13:40.987Z,1.20
2022-09-25T00:16:11.523Z,1.20
2022-09-25T00:18:57.579Z,1.23
2022-09-25T00:21:31.294Z,1.15
2022-09-25T00:24:05.166Z,1.33
2022-09-25T00:26:34.724Z,1.20
2022-09-25T00:29:02.314Z,1.33
2022-09-25T00:31:30.036Z,1.70
2022-09-25T00:33:59.575Z,1.42
2022-09-25T00:36:26.541Z,1.42
2022-09-25T00:38:54.446Z,1.60
2022-09-25T00:41:24.087Z,1.65
2022-09-25T00:43:54.809Z,1.30
2022-09-25T00:46:44.321Z,1.65
2022-09-25T00:49:14.287Z,1.67
2022-09-25T00:51:41.105Z,1.92
2022-09-25T00:54:15.089Z,1.58
2022-09-25T00:56:44.010Z,1.52
2022-09-25T00:59:17.354Z,1.40
2022-09-25T01:01:45.563Z,1.65
2022-09-25T01:04:13.585Z,1.55
2022-09-25T01:06:40.858Z,1.60
2022-09-25T01:09:07.841Z,1.42
2022-09-25T01:11:35.041Z,1.60
2022-09-25T01:14:04.840Z,1.60
2022-09-25T01:16:39.277Z,1.50
2022-09-25T01:19:46.896Z,2.03
2022-09-25T01:22:32.564Z,1.35
2022-09-25T01:25:29.193Z,1.88
2022-09-25T01:28:11.208Z,1.92
2022-09-25T01:30:43.263Z,1.92
2022-09-25T01:33:10.199Z,1.88
2022-09-25T01:35:37.734Z,1.90
2022-09-25T01:38:43.631Z,1.60
2022-09-25T01:41:27.719Z,1.65
2022-09-25T01:44:00.340Z,1.63
2022-09-25T01:46:35.147Z,1.60
2022-09-25T01:49:08.414Z,1.88
2022-09-25T01:51:49.999Z,1.55
2022-09-25T01:54:40.291Z,1.70
2022-09-25T01:57:13.629Z,1.45
2022-09-25T02:00:06.096Z,1.40
2022-09-25T02:02:43.536Z,1.80
2022-09-25T02:05:34.754Z,2.03
2022-09-25T02:08:05.974Z,1.60
2022-09-25T02:10:47.435Z,1.70
2022-09-25T02:13:20.831Z,1.60
2022-09-25T02:15:58.072Z,1.85
2022-09-25T02:18:46.929Z,1.55
2022-09-25T02:21:19.847Z,1.83
2022-09-25T02:23:56.119Z,1.30
2022-09-25T02:26:32.167Z,1.40
2022-09-25T02:29:00.050Z,1.80
2022-09-25T02:31:37.043Z,1.55
2022-09-25T02:34:04.076Z,1.88
2022-09-25T02:36:32.469Z,1.65
2022-09-25T02:39:01.977Z,1.70
2022-09-25T02:41:39.918Z,1.73
2022-09-25T02:44:25.289Z,1.60
2022-09-25T02:47:14.342Z,2.05
2022-09-25T02:49:53.338Z,1.50
2022-09-25T02:52:32.439Z,1.38
2022-09-25T02:55:20.980Z,1.67
2022-09-25T02:57:50.795Z,1.98
2022-09-25T03:00:18.085Z,1.90
2022-09-25T03:02:52.167Z,1.80
2022-09-25T03:05:20.725Z,1.90
2022-09-25T03:08:06.432Z,1.83
2022-09-25T03:10:36.015Z,1.70
2022-09-25T03:13:21.360Z,1.90
2022-09-25T03:15:52.485Z,1.85
2022-09-25T03:18:19.686Z,1.85
2022-09-25T03:20:46.712Z,1.80
2022-09-25T03:23:14.226Z,1.80
2022-09-25T03:25:43.735Z,1.88
2022-09-25T03:28:14.167Z,1.80
2022-09-25T03:30:41.613Z,2.08
2022-09-25T03:33:10.619Z,1.58
2022-09-25T03:35:38.580Z,2.13
2022-09-25T03:38:08.255Z,1.50
2022-09-25T03:40:35.422Z,2.20
2022-09-25T03:47:55.263Z,2.05
2022-09-25T03:50:22.203Z,1.98
2022-09-25T03:52:49.087Z,1.98
2022-09-25T03:55:16.085Z,1.80
2022-09-25T03:57:43.177Z,2.03
2022-09-25T04:00:10.599Z,1.80
2022-09-25T04:02:40.769Z,2.22
2022-09-25T04:05:09.579Z,1.60
2022-09-25T04:07:36.584Z,1.42
2022-09-25T04:10:03.933Z,1.63
2022-09-25T04:12:31.110Z,1.73
2022-09-25T04:14:58.056Z,1.83
2022-09-25T04:17:25.280Z,1.80
2022-09-25T04:19:52.770Z,1.63
2022-09-25T04:22:19.652Z,1.50
2022-09-25T04:24:49.629Z,1.40
2022-09-25T04:27:19.266Z,1.35
2022-09-25T04:29:46.762Z,1.83
2022-09-25T04:32:34.209Z,1.95
2022-09-25T04:35:01.643Z,1.75
2022-09-25T04:37:28.528Z,1.70
2022-09-25T04:39:56.601Z,1.50
2022-09-25T04:42:26.947Z,2.00
2022-09-25T04:44:55.553Z,1.70
2022-09-25T04:47:23.720Z,1.30
2022-09-25T04:49:51.059Z,1.50
2022-09-25T04:52:20.091Z,1.88
2022-09-25T04:54:47.891Z,1.67
2022-09-25T04:57:45.508Z,1.55
2022-09-25T05:00:10.407Z,1.98
2022-09-25T05:02:37.533Z,1.73
2022-09-25T05:05:04.729Z,1.80
2022-09-25T05:07:31.738Z,1.88
2022-09-25T05:09:58.932Z,2.20
2022-09-25T05:12:25.841Z,2.25
2022-09-25T05:14:52.803Z,1.52
2022-09-25T05:17:19.711Z,1.88
2022-09-25T05:19:46.650Z,1.67
2022-09-25T05:22:13.554Z,1.90
2022-09-25T05:24:40.427Z,2.22
2022-09-25T05:27:07.850Z,1.63
2022-09-25T05:29:34.896Z,1.70
2022-09-25T05:32:01.992Z,1.88
2022-09-25T05:34:28.872Z,1.83
2022-09-25T05:36:55.762Z,1.60
2022-09-25T05:39:22.719Z,1.70
2022-09-25T05:41:49.645Z,1.70
2022-09-25T05:44:16.703Z,1.90
2022-09-25T05:46:43.775Z,1.85
2022-09-25T05:49:10.739Z,1.60
2022-09-25T05:51:37.611Z,2.00
2022-09-25T05:54:04.629Z,1.70
2022-09-25T05:56:31.531Z,1.85
2022-09-25T05:58:58.839Z,1.50
2022-09-25T06:01:26.296Z,1.73
2022-09-25T06:03:53.255Z,2.00
2022-09-25T06:06:23.757Z,2.00
2022-09-25T06:08:56.581Z,1.50
2022-09-25T06:11:23.507Z,1.42
2022-09-25T06:13:54.461Z,1.30
2022-09-25T06:16:21.811Z,1.92
2022-09-25T06:18:48.871Z,1.40
2022-09-25T06:21:15.741Z,1.98
2022-09-25T06:23:45.466Z,2.45
2022-09-25T06:26:12.850Z,2.38
2022-09-25T06:28:39.924Z,1.85
2022-09-25T06:31:07.021Z,2.10
2022-09-25T06:33:34.117Z,1.98
2022-09-25T06:36:01.640Z,1.95
2022-09-25T06:38:28.988Z,2.40
2022-09-25T06:40:59.649Z,2.05
2022-09-25T06:43:28.045Z,2.40
2022-09-25T06:45:54.970Z,1.95
2022-09-25T06:48:22.483Z,2.10
2022-09-25T06:50:53.259Z,2.30
2022-09-25T06:53:22.178Z,2.42
2022-09-25T06:55:49.797Z,2.35
2022-09-25T06:58:20.477Z,2.67
2022-09-25T07:00:52.331Z,2.25
2022-09-25T07:03:38.796Z,2.50
2022-09-25T07:06:07.917Z,2.60
2022-09-25T07:08:35.208Z,2.42
2022-09-25T07:11:04.805Z,1.95
2022-09-25T07:13:34.063Z,1.92
2022-09-25T07:16:22.742Z,2.38
2022-09-25T07:18:51.100Z,1.83
2022-09-25T07:21:19.546Z,1.90
2022-09-25T07:23:50.719Z,1.75
2022-09-25T07:26:22.523Z,1.60
2022-09-25T07:28:56.044Z,1.92
2022-09-25T07:31:29.657Z,2.17
2022-09-25T07:33:58.832Z,1.90
2022-09-25T07:36:25.860Z,2.72
2022-09-25T07:38:53.783Z,3.20
2022-09-25T07:41:23.216Z,2.80
2022-09-25T07:44:17.644Z,2.67
2022-09-25T07:46:44.749Z,2.58
2022-09-25T07:49:12.565Z,2.00
2022-09-25T07:51:39.695Z,2.13
2022-09-25T07:54:06.717Z,2.00
2022-09-25T07:56:34.748Z,2.10
2022-09-25T07:59:01.776Z,2.45
2022-09-25T08:01:28.894Z,2.22
2022-09-25T08:03:55.946Z,2.05
2022-09-25T08:06:22.897Z,1.92
2022-09-25T08:08:49.778Z,2.28
2022-09-25T08:11:18.489Z,2.38
2022-09-25T08:13:46.510Z,2.00
2022-09-25T08:16:16.202Z,2.83
2022-09-25T08:18:46.226Z,2.60
2022-09-25T08:21:15.605Z,2.42
2022-09-25T08:23:47.671Z,2.60
2022-09-25T08:26:22.320Z,2.50
2022-09-25T08:28:50.964Z,3.08
2022-09-25T08:31:18.454Z,2.80
2022-09-25T08:33:47.114Z,3.67
2022-09-25T08:36:14.580Z,2.95
2022-09-25T08:38:41.764Z,3.58
2022-09-25T08:41:17.735Z,3.53
2022-09-25T08:44:28.037Z,2.83
2022-09-25T08:47:31.115Z,2.88
2022-09-25T08:50:13.988Z,3.33
2022-09-25T08:52:44.452Z,2.40
2022-09-25T08:55:50.926Z,3.70
2022-09-25T08:58:26.625Z,2.50
2022-09-25T09:01:02.460Z,2.83
2022-09-25T09:03:31.552Z,2.03
2022-09-25T09:06:08.199Z,2.72
2022-09-25T09:08:38.466Z,2.70
2022-09-25T09:11:13.729Z,2.50
2022-09-25T09:13:58.353Z,2.40
2022-09-25T09:17:03.438Z,2.10
2022-09-25T09:19:30.408Z,2.20
2022-09-25T09:22:14.996Z,2.22
2022-09-25T09:24:55.438Z,2.50
2022-09-25T09:27:53.039Z,2.20
2022-09-25T09:30:36.195Z,2.33
2022-09-25T09:33:44.349Z,2.08
2022-09-25T09:36:39.647Z,2.45
2022-09-25T09:39:22.741Z,1.88
2022-09-25T09:42:04.675Z,2.05
2022-09-25T10:17:03.569Z,1.80
2022-09-25T10:19:42.447Z,1.52
2022-09-25T10:22:17.189Z,1.63
2022-09-25T10:25:02.038Z,1.40
2022-09-25T10:27:33.161Z,1.83
2022-09-25T10:30:03.102Z,1.73
2022-09-25T10:32:31.102Z,1.75
2022-09-25T10:34:58.093Z,1.50
2022-09-25T10:37:36.141Z,1.48
2022-09-25T10:40:06.882Z,1.48
2022-09-25T10:42:41.199Z,1.70
2022-09-25T10:45:40.973Z,1.60
2022-09-25T10:48:49.418Z,2.08
2022-09-25T10:51:21.430Z,1.67
2022-09-25T10:53:50.857Z,1.65
2022-09-25T10:56:22.571Z,2.08
2022-09-25T10:59:02.234Z,1.90
2022-09-25T11:01:43.474Z,1.63
2022-09-25T11:04:35.914Z,1.67
2022-09-25T11:07:07.396Z,1.42
2022-09-25T11:09:36.826Z,1.58
2022-09-25T11:12:13.578Z,1.85
2022-09-25T11:14:55.417Z,1.60
2022-09-25T11:17:37.976Z,1.90
2022-09-25T11:20:27.885Z,1.63
2022-09-25T11:23:19.552Z,1.40
2022-09-25T11:25:57.754Z,1.52
2022-09-25T11:28:27.414Z,1.48
2022-09-25T11:31:15.649Z,1.38
2022-09-25T11:34:23.967Z,1.40
2022-09-25T11:37:02.589Z,1.42
2022-09-25T11:40:04.643Z,1.65
2022-09-25T11:42:42.782Z,1.30
2022-09-25T11:45:15.466Z,1.40
2022-09-25T11:47:46.094Z,1.75
2022-09-25T11:50:17.990Z,1.77
2022-09-25T11:53:02.902Z,1.65
2022-09-25T11:56:08.382Z,1.83
2022-09-25T11:58:38.242Z,1.65
2022-09-25T12:01:30.710Z,1.70
2022-09-25T12:04:09.778Z,1.50
2022-09-25T12:07:10.037Z,1.20
2022-09-25T12:09:49.314Z,1.30
2022-09-25T12:12:25.031Z,1.98
2022-09-25T12:15:11.500Z,1.65
2022-09-25T12:17:54.860Z,1.25
2022-09-25T12:20:33.580Z,1.40
2022-09-25T12:23:03.353Z,1.40
2022-09-25T12:25:49.527Z,1.60
2022-09-25T12:28:31.152Z,1.40
2022-09-25T12:31:18.000Z,1.63
2022-09-25T12:37:27.677Z,1.60
2022-09-25T12:39:59.524Z,1.40
2022-09-25T12:42:42.602Z,1.80
2022-09-25T12:45:18.680Z,1.92
2022-09-25T12:48:07.140Z,1.92
2022-09-25T12:50:55.882Z,1.63
2022-09-25T12:53:31.870Z,1.63
2022-09-25T12:56:13.240Z,1.80
2022-09-25T12:58:50.733Z,1.77
2022-09-25T13:01:26.591Z,1.80
2022-09-25T13:03:58.307Z,1.73
2022-09-25T13:06:51.918Z,1.75
2022-09-25T13:09:25.514Z,1.67
2022-09-25T13:11:59.920Z,1.70
2022-09-25T13:14:39.995Z,1.77
2022-09-25T13:17:11.207Z,1.88
2022-09-25T13:19:38.315Z,1.98
2022-09-25T13:22:10.480Z,1.90
2022-09-25T13:24:46.321Z,1.73
2022-09-25T13:27:22.312Z,1.90
2022-09-25T13:29:57.128Z,1.95
2022-09-25T13:32:29.243Z,1.80
2022-09-25T13:35:00.519Z,2.20
2022-09-25T13:37:32.187Z,1.67
2022-09-25T13:40:19.882Z,2.20
2022-09-25T13:42:47.875Z,1.73
2022-09-25T13:45:30.041Z,1.90
2022-09-25T13:48:09.692Z,1.80
2022-09-25T13:50:45.400Z,2.05
2022-09-25T13:53:26.820Z,2.30
2022-09-25T13:55:56.505Z,2.25
2022-09-25T13:58:34.794Z,1.90
2022-09-25T14:01:03.483Z,1.92
2022-09-25T14:03:44.652Z,2.00
2022-09-25T14:06:13.000Z,2.20
2022-09-25T14:08:42.994Z,1.90
2022-09-25T14:11:13.582Z,1.92
2022-09-25T14:13:45.836Z,1.70
2022-09-25T14:16:27.485Z,1.73
2022-09-25T14:19:01.049Z,1.88
2022-09-25T14:21:30.129Z,2.00
2022-09-25T14:24:30.251Z,1.80
2022-09-25T14:27:01.662Z,1.77
2022-09-25T14:29:38.983Z,1.88
2022-09-25T14:32:55.196Z,1.98
2022-09-25T14:35:44.399Z,2.05
2022-09-25T14:38:35.936Z,2.17
2022-09-25T14:41:21.613Z,1.92
2022-09-25T14:44:00.281Z,1.90
2022-09-25T14:46:28.203Z,1.98
2022-09-25T14:49:01.042Z,2.08
2022-09-25T14:51:41.704Z,1.70
2022-09-25T14:54:15.476Z,2.00
2022-09-25T14:56:48.557Z,2.30
2022-09-25T14:59:21.810Z,2.30
2022-09-25T15:01:51.982Z,3.13
2022-09-25T15:04:28.259Z,1.98
2022-09-25T15:07:25.367Z,2.22
2022-09-25T15:09:56.162Z,1.98
2022-09-25T15:12:31.194Z,1.85
2022-09-25T15:15:02.577Z,2.33
2022-09-25T15:17:32.246Z,2.50
2022-09-25T15:20:03.223Z,2.33
2022-09-25T15:22:34.981Z,2.45
2022-09-25T15:25:04.686Z,2.33
2022-09-25T15:27:32.075Z,2.67
2022-09-25T15:30:00.453Z,2.50
2022-09-25T15:32:39.782Z,2.80
2022-09-25T15:35:26.225Z,2.42
2022-09-25T15:38:13.761Z,2.50
2022-09-25T15:40:41.685Z,2.47
2022-09-25T15:43:16.306Z,2.83
2022-09-25T15:46:10.317Z,2.50
2022-09-25T15:48:41.339Z,3.35
2022-09-25T15:51:22.423Z,2.85
2022-09-25T15:54:04.536Z,2.42
2022-09-25T15:56:44.260Z,2.65
2022-09-25T15:59:21.581Z,2.70
2022-09-25T16:02:07.716Z,2.80
2022-09-25T16:04:46.658Z,3.03
2022-09-25T16:07:33.537Z,3.00
2022-09-25T16:10:12.263Z,2.80
2022-09-25T16:12:50.769Z,2.60
2022-09-25T16:15:26.425Z,2.58
2022-09-25T16:17:55.252Z,2.50
2022-09-25T16:20:25.035Z,2.65
2022-09-25T16:22:59.686Z,2.33
2022-09-25T16:25:32.440Z,3.00
2022-09-25T16:28:19.575Z,2.50
2022-09-25T16:33:49.376Z,2.67
2022-09-25T16:36:18.836Z,2.40
2022-09-25T16:39:13.699Z,2.95
2022-09-25T16:41:48.637Z,2.50
2022-09-25T16:44:21.607Z,2.15
2022-09-25T16:46:57.124Z,2.63
2022-09-25T16:49:25.064Z,2.55
2022-09-25T16:51:54.806Z,2.58
2022-09-25T16:54:28.752Z,2.47
2022-09-25T16:56:57.699Z,2.50
2022-09-25T16:59:27.345Z,2.38
2022-09-25T17:02:13.898Z,2.80
2022-09-25T17:04:41.085Z,2.10
2022-09-25T17:07:08.720Z,2.22
2022-09-25T17:09:35.567Z,2.58
2022-09-25T17:12:10.513Z,2.65
2022-09-25T17:14:37.771Z,2.45
2022-09-25T17:17:04.678Z,2.50
2022-09-25T17:19:31.585Z,2.30
2022-09-25T17:21:58.489Z,2.47
2022-09-25T17:24:27.659Z,2.70
2022-09-25T17:26:54.838Z,2.25
2022-09-25T17:29:22.287Z,2.20
2022-09-25T17:31:49.556Z,2.80
2022-09-25T17:34:18.928Z,2.80
2022-09-25T17:36:45.950Z,2.65
2022-09-25T17:39:13.325Z,2.35
2022-09-25T17:41:40.840Z,2.45
2022-09-25T17:44:12.277Z,2.10
2022-09-25T17:46:39.729Z,2.30
2022-09-25T17:49:07.458Z,2.20
2022-09-25T17:51:34.824Z,2.28
2022-09-25T17:54:02.637Z,2.30
2022-09-25T17:56:29.737Z,2.40
2022-09-25T17:58:57.700Z,2.13
2022-09-25T18:01:27.450Z,2.10
2022-09-25T18:03:56.789Z,1.80
2022-09-25T18:06:25.078Z,3.20
2022-09-25T18:08:53.562Z,1.90
2022-09-25T18:11:21.818Z,2.15
2022-09-25T18:13:53.398Z,1.88
2022-09-25T18:16:23.501Z,2.00
2022-09-25T18:19:08.800Z,2.30
2022-09-25T18:21:54.273Z,2.08
2022-09-25T18:24:21.292Z,2.10
2022-09-25T18:26:49.047Z,2.58
2022-09-25T18:29:18.055Z,2.08
2022-09-25T18:31:46.106Z,1.95
2022-09-25T18:34:13.706Z,2.15
2022-09-25T18:36:40.671Z,1.88
2022-09-25T18:39:07.850Z,3.33
2022-09-25T18:41:39.051Z,2.00
2022-09-25T18:44:07.488Z,2.30
2022-09-25T18:46:40.599Z,1.98
2022-09-25T18:49:08.701Z,2.25
2022-09-25T18:51:35.925Z,2.35
2022-09-25T18:54:04.052Z,2.42
2022-09-25T18:56:34.627Z,2.40
2022-09-25T18:59:05.584Z,2.33
2022-09-25T19:01:37.186Z,2.17
2022-09-25T19:04:05.047Z,2.00
2022-09-25T19:06:32.549Z,2.60
2022-09-25T19:08:59.906Z,1.98
2022-09-25T19:11:28.102Z,1.95
2022-09-25T19:13:56.066Z,2.67
2022-09-25T19:16:24.032Z,2.20
2022-09-25T19:18:51.321Z,2.80
2022-09-25T19:21:22.823Z,1.90
2022-09-25T19:23:50.544Z,2.40
2022-09-25T19:26:25.822Z,2.60
2022-09-25T19:28:53.205Z,2.00
2022-09-25T19:31:23.547Z,2.25
2022-09-25T19:33:50.945Z,2.30
2022-09-25T19:36:22.276Z,2.13
2022-09-25T19:38:49.227Z,2.15
2022-09-25T19:41:24.979Z,3.03
2022-09-25T19:43:59.348Z,2.28
2022-09-25T19:46:28.345Z,2.30
2022-09-25T19:48:55.761Z,2.35
2022-09-25T19:51:24.724Z,2.13
2022-09-25T19:53:52.243Z,2.38
2022-09-25T19:56:19.552Z,2.33
2022-09-25T19:58:49.740Z,2.13
2022-09-25T20:01:30.326Z,2.15
2022-09-25T20:03:57.625Z,2.83
2022-09-25T20:06:26.410Z,2.42
2022-09-25T20:09:02.905Z,2.10
2022-09-25T20:11:31.672Z,2.28
2022-09-25T20:13:59.110Z,2.38
2022-09-25T20:16:29.286Z,2.40
2022-09-25T20:19:01.918Z,2.55
2022-09-25T20:21:32.732Z,2.45
2022-09-25T20:24:02.136Z,2.60
2022-09-25T20:26:30.260Z,2.85
2022-09-25T20:28:59.422Z,2.75
2022-09-25T20:31:28.174Z,2.47
2022-09-25T20:33:55.595Z,2.95
2022-09-25T20:36:23.132Z,2.72
2022-09-25T20:38:54.795Z,2.80
2022-09-25T20:41:23.299Z,2.90
2022-09-25T20:43:52.094Z,2.58
2022-09-25T20:46:20.504Z,2.92
2022-09-25T20:48:51.548Z,2.33
2022-09-25T20:51:22.001Z,2.63
2022-09-25T20:53:53.674Z,2.60
2022-09-25T20:56:22.080Z,3.13
2022-09-25T20:58:53.373Z,3.67
2022-09-25T21:01:24.401Z,3.05
2022-09-25T21:03:52.295Z,2.97
2022-09-25T21:06:23.523Z,2.70
2022-09-25T21:08:55.618Z,3.40
2022-09-25T21:11:23.587Z,2.70
2022-09-25T21:13:52.646Z,2.78
2022-09-25T21:16:21.754Z,2.65
2022-09-25T21:18:54.983Z,3.17
2022-09-25T21:21:23.360Z,2.90
2022-09-25T21:23:54.306Z,3.30
2022-09-25T21:26:24.149Z,3.20
2022-09-25T21:28:53.132Z,3.50
2022-09-25T21:31:25.744Z,3.08
2022-09-25T21:33:54.471Z,3.25
2022-09-25T21:36:22.685Z,3.53
2022-09-25T21:38:50.549Z,3.85
2022-09-25T21:41:20.528Z,3.60
2022-09-25T21:43:48.017Z,3.08
2022-09-25T21:46:18.359Z,4.35
2022-09-25T21:48:54.196Z,3.40
2022-09-25T21:51:23.332Z,3.42
2022-09-25T21:53:50.369Z,3.65
2022-09-25T21:56:20.037Z,3.47
2022-09-25T21:58:47.629Z,3.08
2022-09-25T22:01:19.145Z,3.35
2022-09-25T22:03:51.012Z,3.28
2022-09-25T22:06:20.706Z,3.70
2022-09-25T22:08:50.773Z,3.00
2022-09-25T22:11:19.214Z,3.50
2022-09-25T22:13:47.736Z,3.40
2022-09-25T22:16:22.062Z,3.40
2022-09-25T22:19:03.115Z,3.47
2022-09-25T22:21:32.167Z,3.28
2022-09-25T22:23:59.459Z,3.25
2022-09-25T22:26:27.627Z,3.13
2022-09-25T22:28:55.326Z,3.63
2022-09-25T22:31:24.115Z,3.40
2022-09-25T22:34:01.087Z,3.17
2022-09-25T22:36:28.291Z,3.47
2022-09-25T22:38:55.873Z,3.15
2022-09-25T22:41:23.590Z,3.33
2022-09-25T22:43:52.269Z,3.50
2022-09-25T22:46:20.660Z,4.13
2022-09-25T22:48:47.715Z,3.70
2022-09-25T22:51:17.764Z,3.65
2022-09-25T22:53:44.989Z,3.72
2022-09-25T22:56:16.288Z,3.65
2022-09-25T22:58:47.412Z,4.35
2022-09-25T23:01:48.248Z,3.75
2022-09-25T23:04:18.369Z,3.17
2022-09-25T23:06:45.516Z,3.50
2022-09-25T23:09:16.034Z,3.83
2022-09-25T23:11:43.574Z,3.83
2022-09-25T23:14:21.942Z,3.15
2022-09-25T23:16:51.183Z,3.13
2022-09-25T23:19:19.246Z,4.03
2022-09-25T23:21:46.164Z,3.97
2022-09-25T23:24:16.074Z,3.30
2022-09-25T23:26:43.724Z,3.60
2022-09-25T23:29:13.487Z,3.67
2022-09-25T23:31:42.237Z,3.53
2022-09-25T23:34:09.708Z,4.00
2022-09-25T23:36:37.513Z,3.50
2022-09-25T23:39:08.531Z,3.58
2022-09-25T23:41:37.965Z,3.88
2022-09-25T23:44:08.043Z,3.55
2022-09-25T23:46:38.157Z,3.72
2022-09-25T23:49:06.162Z,3.50
2022-09-25T23:51:33.155Z,3.92
2022-09-25T23:54:02.019Z,4.50
2022-09-25T23:56:31.594Z,3.63
2022-09-25T23:59:01.281Z,4.13
